createdAt,value
2023-05-07T00:00:11.264Z,89.40
2023-05-07T00:02:28.904Z,89.72
2023-05-07T00:04:46.252Z,90.62
2023-05-07T00:07:03.502Z,89.95
2023-05-07T00:09:20.862Z,90.48
2023-05-07T00:11:38.146Z,90.39
2023-05-07T00:13:55.473Z,90.98
2023-05-07T00:16:12.816Z,90.25
2023-05-07T00:18:29.773Z,90.61
2023-05-07T00:20:46.786Z,90.59
2023-05-07T00:23:03.711Z,90.82
2023-05-07T00:25:21.490Z,90.85
2023-05-07T00:27:39.294Z,91.19
2023-05-07T00:29:56.619Z,90.85
2023-05-07T00:32:14.037Z,90.44
2023-05-07T00:34:31.513Z,90.71
2023-05-07T00:36:49.786Z,91.47
2023-05-07T00:39:07.075Z,90.49
2023-05-07T00:41:24.310Z,90.80
2023-05-07T00:43:41.583Z,90.97
2023-05-07T00:45:59.070Z,90.59
2023-05-07T00:48:16.020Z,90.98
2023-05-07T00:50:33.933Z,90.83
2023-05-07T00:52:51.243Z,90.69
2023-05-07T00:55:09.606Z,91.13
2023-05-07T00:57:27.034Z,90.75
2023-05-07T00:59:44.374Z,90.81
2023-05-07T01:02:02.028Z,91.17
2023-05-07T01:04:20.410Z,91.15
2023-05-07T01:06:38.689Z,91.16
2023-05-07T01:08:57.921Z,91.59
2023-05-07T01:11:15.859Z,91.06
2023-05-07T01:13:32.893Z,91.40
2023-05-07T01:15:50.219Z,91.39
2023-05-07T01:18:07.588Z,91.25
2023-05-07T01:20:25.348Z,91.27
2023-05-07T01:22:42.613Z,91.28
2023-05-07T01:24:59.878Z,91.05
2023-05-07T01:27:17.206Z,91.33
2023-05-07T01:29:34.143Z,90.46
2023-05-07T01:31:51.852Z,91.12
2023-05-07T01:34:10.478Z,90.85
2023-05-07T01:36:27.452Z,91.47
2023-05-07T01:38:44.780Z,90.90
2023-05-07T01:41:02.425Z,90.79
2023-05-07T01:43:19.714Z,90.96
2023-05-07T01:45:36.985Z,91.33
2023-05-07T01:47:54.340Z,91.38
2023-05-07T01:50:12.138Z,91.08
2023-05-07T01:52:30.614Z,90.95
2023-05-07T01:54:48.321Z,91.46
2023-05-07T01:57:05.957Z,91.77
2023-05-07T01:59:23.249Z,91.52
2023-05-07T02:01:40.937Z,91.38
2023-05-07T02:03:58.271Z,91.73
2023-05-07T02:06:16.092Z,91.82
2023-05-07T02:08:34.384Z,92.39
2023-05-07T02:10:51.727Z,90.97
2023-05-07T02:13:08.974Z,91.61
2023-05-07T02:15:26.213Z,92.14
2023-05-07T02:17:43.508Z,91.49
2023-05-07T02:20:00.836Z,91.29
2023-05-07T02:22:18.166Z,91.39
2023-05-07T02:24:35.403Z,92.73
2023-05-07T02:26:52.738Z,91.48
2023-05-07T02:29:09.996Z,92.03
2023-05-07T02:31:27.010Z,91.71
2023-05-07T02:33:44.043Z,92.79
2023-05-07T02:36:01.442Z,92.78
2023-05-07T02:38:19.047Z,92.71
2023-05-07T02:40:36.510Z,91.69
2023-05-07T02:42:53.884Z,91.71
2023-05-07T02:45:11.619Z,92.25
2023-05-07T02:47:28.881Z,91.68
2023-05-07T02:49:46.281Z,91.64
2023-05-07T02:52:03.478Z,91.63
2023-05-07T02:54:22.996Z,92.01
2023-05-07T02:56:40.275Z,93.03
2023-05-07T02:58:57.455Z,92.45
2023-05-07T03:01:14.525Z,92.39
2023-05-07T03:03:31.998Z,91.43
2023-05-07T03:05:49.318Z,92.12
2023-05-07T03:08:07.068Z,92.33
2023-05-07T03:10:24.116Z,91.06
2023-05-07T03:12:41.871Z,92.29
2023-05-07T03:14:58.824Z,91.80
2023-05-07T03:17:16.029Z,92.44
2023-05-07T03:19:33.334Z,91.37
2023-05-07T03:21:50.395Z,91.79
2023-05-07T03:24:07.651Z,91.95
2023-05-07T03:26:24.989Z,92.49
2023-05-07T03:28:45.282Z,91.83
2023-05-07T03:31:02.614Z,91.71
2023-05-07T03:33:22.364Z,91.84
2023-05-07T03:35:41.382Z,91.43
2023-05-07T03:37:58.344Z,91.42
2023-05-07T03:40:16.297Z,91.91
2023-05-07T03:42:33.492Z,92.64
2023-05-07T03:44:50.512Z,91.91
2023-05-07T03:47:07.798Z,93.06
2023-05-07T03:49:25.463Z,92.59
2023-05-07T03:51:42.775Z,91.79
2023-05-07T03:54:03.255Z,91.64
2023-05-07T03:56:21.160Z,92.75
2023-05-07T03:58:38.856Z,91.59
2023-05-07T04:00:56.559Z,92.00
2023-05-07T04:03:14.251Z,91.51
2023-05-07T04:05:31.568Z,92.90
2023-05-07T04:07:49.606Z,92.70
2023-05-07T04:10:08.073Z,91.54
2023-05-07T04:12:25.639Z,92.58
2023-05-07T04:14:42.934Z,92.37
2023-05-07T04:17:01.197Z,92.21
2023-05-07T04:19:20.003Z,92.54
2023-05-07T04:21:37.419Z,92.47
2023-05-07T04:23:54.854Z,91.34
2023-05-07T04:26:12.240Z,91.56
2023-05-07T04:28:29.524Z,92.65
2023-05-07T04:30:46.473Z,92.79
2023-05-07T04:33:03.784Z,92.56
2023-05-07T04:35:21.778Z,92.61
2023-05-07T04:37:39.096Z,91.82
2023-05-07T04:39:56.456Z,92.87
2023-05-07T04:42:14.134Z,91.57
2023-05-07T04:44:31.462Z,91.64
2023-05-07T04:46:48.431Z,92.87
2023-05-07T04:49:05.666Z,93.14
2023-05-07T04:51:22.938Z,92.05
2023-05-07T04:53:40.206Z,92.64
2023-05-07T04:55:57.502Z,92.01
2023-05-07T04:58:15.735Z,91.77
2023-05-07T05:00:32.783Z,91.91
2023-05-07T05:02:50.140Z,92.61
2023-05-07T05:05:07.492Z,92.54
2023-05-07T05:07:24.886Z,91.46
2023-05-07T05:09:42.227Z,91.27
2023-05-07T05:11:59.394Z,91.85
2023-05-07T05:14:16.312Z,92.68
2023-05-07T05:16:38.740Z,92.77
2023-05-07T05:18:55.762Z,92.29
2023-05-07T05:21:13.054Z,92.06
2023-05-07T05:23:30.793Z,91.98
2023-05-07T05:25:48.153Z,92.32
2023-05-07T05:28:05.516Z,92.22
2023-05-07T05:30:23.340Z,92.11
2023-05-07T05:32:40.758Z,91.88
2023-05-07T05:34:58.160Z,91.74
2023-05-07T05:37:15.510Z,91.27
2023-05-07T05:39:33.227Z,91.67
2023-05-07T05:41:50.863Z,91.52
2023-05-07T05:44:08.106Z,91.48
2023-05-07T05:46:25.845Z,91.31
2023-05-07T05:48:43.245Z,91.45
2023-05-07T05:51:01.513Z,91.21
2023-05-07T05:53:18.756Z,91.24
2023-05-07T05:55:36.507Z,91.14
2023-05-07T05:57:55.049Z,90.63
2023-05-07T06:00:13.563Z,90.95
2023-05-07T06:02:32.126Z,90.63
2023-05-07T06:04:49.557Z,90.40
2023-05-07T06:07:06.965Z,89.99
2023-05-07T06:09:24.695Z,89.36
2023-05-07T06:11:41.988Z,89.88
2023-05-07T06:13:59.327Z,90.42
2023-05-07T06:16:17.694Z,90.57
2023-05-07T06:18:34.637Z,90.01
2023-05-07T06:20:51.896Z,89.73
2023-05-07T06:23:09.234Z,90.40
2023-05-07T06:25:26.631Z,89.76
2023-05-07T06:27:46.226Z,89.24
2023-05-07T06:30:08.615Z,89.38
2023-05-07T06:32:27.099Z,89.31
2023-05-07T06:34:44.825Z,88.97
2023-05-07T06:37:02.078Z,89.67
2023-05-07T06:39:19.390Z,89.59
2023-05-07T06:41:37.618Z,89.33
2023-05-07T06:43:55.349Z,88.61
2023-05-07T06:46:12.986Z,87.67
2023-05-07T06:48:30.050Z,87.40
2023-05-07T06:50:47.351Z,87.83
2023-05-07T06:53:05.621Z,89.17
2023-05-07T06:55:23.794Z,88.00
2023-05-07T06:57:41.094Z,89.15
2023-05-07T06:59:58.315Z,88.10
2023-05-07T07:02:17.716Z,87.45
2023-05-07T07:04:35.663Z,88.62
2023-05-07T07:06:52.714Z,86.39
2023-05-07T07:09:10.641Z,84.47
2023-05-07T07:11:27.655Z,84.88
2023-05-07T07:13:44.962Z,86.08
2023-05-07T07:16:03.263Z,84.85
2023-05-07T07:18:21.350Z,83.85
2023-05-07T07:20:38.681Z,84.23
2023-05-07T07:22:55.647Z,83.69
2023-05-07T07:25:12.921Z,83.57
2023-05-07T07:27:31.229Z,83.04
2023-05-07T07:29:48.583Z,84.62
2023-05-07T07:32:08.305Z,83.14
2023-05-07T07:34:25.833Z,84.41
2023-05-07T07:36:46.654Z,81.99
2023-05-07T07:39:04.273Z,80.38
2023-05-07T07:41:21.561Z,81.77
2023-05-07T07:43:38.839Z,81.22
2023-05-07T07:45:56.308Z,80.24
2023-05-07T07:48:14.407Z,78.35
2023-05-07T07:50:43.438Z,77.80
2023-05-07T07:53:02.219Z,78.61
2023-05-07T07:55:20.495Z,78.85
2023-05-07T07:57:37.837Z,77.40
2023-05-07T07:59:55.146Z,77.60
2023-05-07T08:02:13.122Z,78.03
2023-05-07T08:04:30.877Z,77.71
2023-05-07T08:06:49.343Z,78.41
2023-05-07T08:09:06.285Z,77.62
2023-05-07T08:11:23.244Z,76.21
2023-05-07T08:13:40.474Z,75.25
2023-05-07T08:15:57.762Z,75.28
2023-05-07T08:18:15.066Z,75.95
2023-05-07T08:20:32.445Z,75.11
2023-05-07T08:22:50.765Z,73.81
2023-05-07T08:25:07.763Z,73.90
2023-05-07T08:27:24.998Z,73.55
2023-05-07T08:29:42.743Z,74.17
2023-05-07T08:31:59.654Z,73.19
2023-05-07T08:34:16.734Z,71.79
2023-05-07T08:36:34.587Z,71.57
2023-05-07T08:38:51.863Z,70.38
2023-05-07T08:41:10.093Z,72.33
2023-05-07T08:43:27.421Z,73.45
2023-05-07T08:45:44.325Z,72.26
2023-05-07T08:48:03.525Z,69.84
2023-05-07T08:50:20.931Z,69.66
2023-05-07T08:52:38.007Z,70.09
2023-05-07T08:54:56.286Z,71.26
2023-05-07T08:57:13.248Z,68.98
2023-05-07T08:59:30.531Z,70.27
2023-05-07T09:01:47.622Z,70.44
2023-05-07T09:04:06.041Z,70.83
2023-05-07T09:06:23.728Z,69.72
2023-05-07T09:08:41.076Z,70.50
2023-05-07T09:10:58.012Z,68.89
2023-05-07T09:13:15.351Z,68.05
2023-05-07T09:15:32.770Z,68.18
2023-05-07T09:17:51.057Z,67.73
2023-05-07T09:20:10.817Z,68.11
2023-05-07T09:22:28.676Z,67.04
2023-05-07T09:24:45.896Z,66.52
2023-05-07T09:27:03.243Z,67.01
2023-05-07T09:29:20.566Z,66.98
2023-05-07T09:31:37.858Z,66.02
2023-05-07T09:33:55.076Z,66.16
2023-05-07T09:36:12.359Z,65.86
2023-05-07T09:38:29.599Z,64.61
2023-05-07T09:40:46.833Z,65.31
2023-05-07T09:43:03.784Z,64.45
2023-05-07T09:45:21.129Z,64.59
2023-05-07T09:47:38.516Z,64.61
2023-05-07T09:49:58.432Z,65.94
2023-05-07T09:52:15.700Z,65.41
2023-05-07T09:54:34.566Z,64.12
2023-05-07T09:56:51.497Z,63.23
2023-05-07T09:59:08.769Z,63.43
2023-05-07T10:01:25.730Z,62.23
2023-05-07T10:03:43.165Z,63.87
2023-05-07T10:06:00.629Z,62.41
2023-05-07T10:08:18.015Z,62.09
2023-05-07T10:10:35.325Z,60.73
2023-05-07T10:12:52.620Z,61.89
2023-05-07T10:15:10.820Z,61.65
2023-05-07T10:17:28.273Z,60.12
2023-05-07T10:19:46.586Z,60.42
2023-05-07T10:22:04.272Z,61.00
2023-05-07T10:24:21.567Z,60.99
2023-05-07T10:26:38.772Z,60.65
2023-05-07T10:28:56.011Z,60.91
2023-05-07T10:31:13.362Z,60.12
2023-05-07T10:33:30.715Z,59.36
2023-05-07T10:35:48.099Z,59.15
2023-05-07T10:38:06.309Z,60.75
2023-05-07T10:40:23.261Z,58.90
2023-05-07T10:42:40.603Z,58.58
2023-05-07T10:44:57.934Z,57.65
2023-05-07T10:47:15.218Z,56.95
2023-05-07T10:49:32.236Z,57.89
2023-05-07T10:51:49.553Z,55.72
2023-05-07T10:54:06.770Z,57.36
2023-05-07T10:56:24.188Z,55.04
2023-05-07T10:58:41.078Z,55.98
2023-05-07T11:00:58.308Z,55.65
2023-05-07T11:03:15.561Z,55.13
2023-05-07T11:05:34.440Z,55.73
2023-05-07T11:07:53.095Z,55.02
2023-05-07T11:10:10.819Z,55.13
2023-05-07T11:12:28.153Z,55.28
2023-05-07T11:14:45.384Z,55.72
2023-05-07T11:17:02.984Z,55.99
2023-05-07T11:19:20.687Z,54.61
2023-05-07T11:21:37.844Z,56.34
2023-05-07T11:23:56.731Z,55.20
2023-05-07T11:26:13.967Z,56.77
2023-05-07T11:28:31.271Z,56.41
2023-05-07T11:30:48.350Z,55.85
2023-05-07T11:33:06.788Z,55.42
2023-05-07T11:35:23.707Z,55.86
2023-05-07T11:37:41.033Z,56.54
2023-05-07T11:39:58.355Z,55.83
2023-05-07T11:42:16.820Z,55.36
2023-05-07T11:44:34.120Z,55.71
2023-05-07T11:46:51.537Z,53.19
2023-05-07T11:49:09.754Z,52.87
2023-05-07T11:51:26.997Z,53.45
2023-05-07T11:53:44.619Z,54.62
2023-05-07T11:56:02.984Z,54.16
2023-05-07T11:58:20.275Z,56.01
2023-05-07T12:00:56.226Z,55.81
2023-05-07T12:05:48.670Z,55.82
2023-05-07T12:08:06.162Z,55.85
2023-05-07T12:18:23.796Z,52.51
2023-05-07T12:20:43.826Z,52.57
2023-05-07T12:23:08.131Z,50.39
2023-05-07T12:33:34.591Z,49.80
2023-05-07T12:35:54.354Z,51.92
2023-05-07T12:38:30.649Z,50.78
2023-05-07T12:40:51.091Z,50.90
2023-05-07T12:48:24.855Z,52.33
2023-05-07T12:50:42.146Z,52.03
2023-05-07T12:52:59.058Z,52.80
2023-05-07T12:55:17.312Z,52.04
2023-05-07T12:57:34.668Z,53.10
2023-05-07T12:59:51.593Z,52.88
2023-05-07T13:02:09.375Z,51.04
2023-05-07T13:04:26.668Z,50.16
2023-05-07T13:06:44.040Z,51.88
2023-05-07T13:09:01.339Z,50.56
2023-05-07T13:11:18.873Z,51.24
2023-05-07T13:13:36.180Z,49.51
2023-05-07T13:15:54.622Z,49.97
2023-05-07T13:18:12.123Z,51.59
2023-05-07T13:20:29.447Z,50.99
2023-05-07T13:22:47.097Z,53.03
2023-05-07T13:25:04.410Z,52.51
2023-05-07T13:27:21.633Z,51.50
2023-05-07T13:29:38.642Z,50.88
2023-05-07T13:31:56.022Z,50.75
2023-05-07T13:34:13.360Z,49.19
2023-05-07T13:36:30.595Z,50.94
2023-05-07T13:38:47.593Z,50.76
2023-05-07T13:41:05.976Z,51.58
2023-05-07T13:43:23.345Z,51.92
2023-05-07T13:45:41.075Z,52.02
2023-05-07T13:47:58.443Z,54.65
2023-05-07T13:50:15.897Z,52.87
2023-05-07T13:52:33.247Z,51.90
2023-05-07T13:54:52.428Z,52.45
2023-05-07T13:57:09.752Z,53.00
2023-05-07T13:59:26.756Z,52.15
2023-05-07T14:01:44.087Z,52.05
2023-05-07T14:04:01.553Z,51.56
2023-05-07T14:06:18.979Z,53.63
2023-05-07T14:08:35.905Z,53.86
2023-05-07T14:10:53.177Z,54.29
2023-05-07T14:13:11.544Z,54.07
2023-05-07T14:15:28.898Z,54.01
2023-05-07T14:17:46.232Z,55.01
2023-05-07T14:20:03.604Z,55.62
2023-05-07T14:22:20.928Z,56.16
2023-05-07T14:24:39.221Z,56.37
2023-05-07T14:26:56.512Z,56.01
2023-05-07T14:29:13.839Z,55.46
2023-05-07T14:31:32.267Z,56.27
2023-05-07T14:33:49.646Z,54.69
2023-05-07T14:36:06.935Z,56.25
2023-05-07T14:38:25.326Z,57.12
2023-05-07T14:40:43.340Z,58.84
2023-05-07T14:43:00.657Z,59.08
2023-05-07T14:45:18.001Z,58.51
2023-05-07T14:47:35.357Z,58.70
2023-05-07T14:49:53.754Z,58.79
2023-05-07T14:52:10.675Z,57.98
2023-05-07T14:54:27.968Z,59.59
2023-05-07T14:56:45.090Z,60.06
2023-05-07T14:59:02.904Z,58.41
2023-05-07T15:01:20.250Z,61.15
2023-05-07T15:03:37.921Z,61.90
2023-05-07T15:05:55.494Z,62.09
2023-05-07T15:08:14.607Z,63.77
2023-05-07T15:10:32.865Z,63.86
2023-05-07T15:12:50.168Z,64.12
2023-05-07T15:15:07.645Z,64.49
2023-05-07T15:17:25.382Z,64.90
2023-05-07T15:19:42.416Z,66.23
2023-05-07T15:21:59.412Z,67.75
2023-05-07T15:24:16.921Z,68.61
2023-05-07T15:26:33.879Z,70.04
2023-05-07T15:28:51.588Z,69.87
2023-05-07T15:31:08.904Z,70.98
2023-05-07T15:33:27.138Z,74.89
2023-05-07T15:35:44.524Z,74.14
2023-05-07T15:38:01.870Z,77.18
2023-05-07T15:40:19.780Z,78.86
2023-05-07T15:42:37.085Z,80.79
2023-05-07T15:44:55.315Z,83.12
2023-05-07T15:47:12.575Z,82.47
2023-05-07T15:49:29.781Z,83.32
2023-05-07T15:51:46.838Z,85.99
2023-05-07T15:54:04.111Z,83.40
2023-05-07T15:56:21.144Z,82.72
2023-05-07T15:58:38.407Z,82.87
2023-05-07T16:00:55.704Z,82.73
2023-05-07T16:03:13.104Z,83.75
2023-05-07T16:05:31.385Z,83.38
2023-05-07T16:07:49.036Z,83.72
2023-05-07T16:10:06.372Z,85.49
2023-05-07T16:12:24.786Z,83.84
2023-05-07T16:14:42.080Z,84.21
2023-05-07T16:16:59.403Z,85.16
2023-05-07T16:19:16.693Z,85.88
2023-05-07T16:21:34.052Z,86.08
2023-05-07T16:23:51.303Z,85.32
2023-05-07T16:26:09.410Z,83.79
2023-05-07T16:28:27.649Z,86.60
2023-05-07T16:30:44.955Z,88.25
2023-05-07T16:33:03.228Z,88.59
2023-05-07T16:35:20.188Z,88.05
2023-05-07T16:37:37.242Z,87.86
2023-05-07T16:39:54.263Z,89.40
2023-05-07T16:42:11.209Z,89.68
2023-05-07T16:44:28.442Z,88.74
2023-05-07T16:46:45.795Z,89.41
2023-05-07T16:49:02.823Z,88.88
2023-05-07T16:51:19.789Z,88.31
2023-05-07T16:53:37.072Z,88.01
2023-05-07T16:55:54.319Z,89.62
2023-05-07T16:58:11.649Z,89.83
2023-05-07T17:00:34.697Z,89.20
2023-05-07T17:02:59.570Z,89.74
2023-05-07T17:05:16.982Z,88.62
2023-05-07T17:07:35.528Z,88.21
2023-05-07T17:09:52.860Z,89.32
2023-05-07T17:12:11.211Z,90.39
2023-05-07T17:14:28.478Z,90.70
2023-05-07T17:16:46.259Z,91.02
2023-05-07T17:19:03.351Z,91.94
2023-05-07T17:21:20.416Z,91.54
2023-05-07T17:23:37.499Z,90.18
2023-05-07T17:25:54.796Z,90.76
2023-05-07T17:28:12.023Z,89.58
2023-05-07T17:30:29.233Z,89.42
2023-05-07T17:32:46.569Z,90.30
2023-05-07T17:35:03.873Z,91.21
2023-05-07T17:37:23.457Z,91.33
2023-05-07T17:39:41.362Z,91.19
2023-05-07T17:41:58.393Z,91.90
2023-05-07T17:44:16.580Z,90.94
2023-05-07T17:46:33.676Z,91.10
2023-05-07T17:48:50.940Z,89.54
2023-05-07T17:51:08.211Z,89.62
2023-05-07T17:53:25.646Z,90.80
2023-05-07T17:55:42.946Z,90.31
2023-05-07T17:57:59.880Z,91.14
2023-05-07T18:00:17.146Z,91.40
2023-05-07T18:02:34.237Z,91.71
2023-05-07T18:04:51.317Z,91.59
2023-05-07T18:07:08.317Z,91.86
2023-05-07T18:09:25.607Z,91.60
2023-05-07T18:11:42.895Z,92.09
2023-05-07T18:14:01.219Z,92.37
2023-05-07T18:16:18.347Z,92.41
2023-05-07T18:18:35.759Z,90.54
2023-05-07T18:20:53.077Z,91.66
2023-05-07T18:23:11.109Z,90.99
2023-05-07T18:25:28.288Z,92.41
2023-05-07T18:27:46.646Z,93.07
2023-05-07T18:30:03.911Z,92.08
2023-05-07T18:32:22.323Z,91.96
2023-05-07T18:34:39.654Z,92.69
2023-05-07T18:36:56.626Z,93.27
2023-05-07T18:39:13.859Z,93.77
2023-05-07T18:41:32.134Z,93.52
2023-05-07T18:43:49.361Z,93.55
2023-05-07T18:46:06.712Z,94.22
2023-05-07T18:48:24.015Z,95.00
2023-05-07T18:50:40.966Z,94.50
2023-05-07T18:52:58.253Z,94.55
2023-05-07T18:55:16.021Z,95.36
2023-05-07T18:57:33.271Z,94.42
2023-05-07T18:59:50.279Z,94.77
2023-05-07T19:02:07.254Z,94.48
2023-05-07T19:04:24.305Z,96.05
2023-05-07T19:06:42.076Z,95.70
2023-05-07T19:08:59.426Z,95.52
2023-05-07T19:11:16.748Z,94.95
2023-05-07T19:13:33.948Z,94.77
2023-05-07T19:15:51.195Z,94.95
2023-05-07T19:18:08.586Z,95.17
2023-05-07T19:20:26.080Z,95.11
2023-05-07T19:22:43.934Z,94.97
2023-05-07T19:25:01.165Z,94.50
2023-05-07T19:27:19.423Z,94.58
2023-05-07T19:29:36.320Z,94.10
2023-05-07T19:31:53.730Z,93.96
2023-05-07T19:34:11.156Z,93.89
2023-05-07T19:36:29.011Z,93.62
2023-05-07T19:38:45.963Z,93.85
2023-05-07T19:41:03.259Z,94.53
2023-05-07T19:43:20.145Z,94.07
2023-05-07T19:45:37.493Z,94.26
2023-05-07T19:47:54.548Z,94.56
2023-05-07T19:50:11.945Z,95.08
2023-05-07T19:52:29.236Z,94.74
2023-05-07T19:54:46.741Z,94.89
2023-05-07T19:57:04.067Z,95.39
2023-05-07T19:59:21.422Z,95.57
2023-05-07T20:01:38.779Z,95.87
2023-05-07T20:03:57.269Z,95.99
2023-05-07T20:06:15.712Z,96.04
2023-05-07T20:08:32.975Z,96.87
2023-05-07T20:10:49.916Z,96.72
2023-05-07T20:13:07.205Z,95.67
2023-05-07T20:15:24.449Z,96.06
2023-05-07T20:17:42.818Z,95.04
2023-05-07T20:20:00.162Z,95.76
2023-05-07T20:22:17.082Z,96.28
2023-05-07T20:24:34.356Z,96.62
2023-05-07T20:26:51.625Z,96.60
2023-05-07T20:29:08.512Z,97.04
2023-05-07T20:31:26.276Z,97.10
2023-05-07T20:33:43.267Z,96.55
2023-05-07T20:36:00.910Z,97.47
2023-05-07T20:38:18.252Z,97.34
2023-05-07T20:40:35.584Z,97.82
2023-05-07T20:42:52.821Z,97.85
2023-05-07T20:45:09.778Z,97.82
2023-05-07T20:47:26.745Z,97.36
2023-05-07T20:49:44.039Z,97.17
2023-05-07T20:52:01.254Z,96.54
2023-05-07T20:54:18.248Z,96.37
2023-05-07T20:56:36.495Z,96.45
2023-05-07T20:58:55.670Z,96.69
2023-05-07T21:01:12.641Z,96.85
2023-05-07T21:03:30.061Z,97.10
2023-05-07T21:05:47.365Z,96.95
2023-05-07T21:08:05.616Z,97.03
2023-05-07T21:10:22.910Z,96.67
2023-05-07T21:12:40.672Z,95.63
2023-05-07T21:14:57.978Z,96.09
2023-05-07T21:17:14.900Z,96.53
2023-05-07T21:19:31.859Z,97.10
2023-05-07T21:21:48.939Z,96.83
2023-05-07T21:24:06.254Z,96.88
2023-05-07T21:26:23.989Z,96.04
2023-05-07T21:28:42.287Z,95.39
2023-05-07T21:30:59.312Z,96.55
2023-05-07T21:33:16.226Z,96.69
2023-05-07T21:35:33.189Z,96.96
2023-05-07T21:37:50.421Z,95.96
2023-05-07T21:40:07.955Z,96.53
2023-05-07T21:42:26.239Z,96.65
2023-05-07T21:44:46.031Z,96.96
2023-05-07T21:47:03.248Z,97.35
2023-05-07T21:49:20.509Z,97.26
2023-05-07T21:51:37.780Z,97.38
2023-05-07T21:53:56.027Z,97.45
2023-05-07T21:56:14.278Z,97.88
2023-05-07T21:58:32.573Z,98.25
2023-05-07T22:00:49.947Z,98.07
2023-05-07T22:03:07.307Z,98.62
2023-05-07T22:05:24.967Z,98.60
2023-05-07T22:07:42.011Z,98.81
2023-05-07T22:09:59.279Z,99.01
2023-05-07T22:12:16.622Z,98.88
2023-05-07T22:14:33.934Z,98.72
2023-05-07T22:16:51.420Z,96.45
2023-05-07T22:19:08.895Z,98.24
2023-05-07T22:21:26.221Z,97.63
2023-05-07T22:23:43.548Z,97.95
2023-05-07T22:26:00.866Z,97.71
2023-05-07T22:28:18.132Z,98.49
2023-05-07T22:30:34.993Z,98.95
2023-05-07T22:32:52.323Z,98.89
2023-05-07T22:35:10.076Z,99.29
2023-05-07T22:37:27.100Z,99.32
2023-05-07T22:39:44.306Z,99.00
2023-05-07T22:42:01.186Z,99.03
2023-05-07T22:44:19.370Z,98.99
2023-05-07T22:46:36.590Z,98.97
2023-05-07T22:48:53.873Z,99.43
2023-05-07T22:51:11.238Z,98.66
2023-05-07T22:53:28.555Z,99.25
2023-05-07T22:55:45.797Z,98.25
2023-05-07T22:58:03.138Z,98.39
2023-05-07T23:00:20.566Z,98.78
2023-05-07T23:02:37.682Z,98.23
2023-05-07T23:04:54.662Z,98.76
2023-05-07T23:07:12.027Z,98.82
2023-05-07T23:09:30.215Z,99.47
2023-05-07T23:11:47.849Z,99.00
2023-05-07T23:14:05.724Z,99.79
2023-05-07T23:16:22.979Z,98.53
2023-05-07T23:18:40.230Z,98.51
2023-05-07T23:20:57.493Z,98.10
2023-05-07T23:23:15.512Z,98.56
2023-05-07T23:25:33.257Z,98.78
2023-05-07T23:27:51.537Z,99.51
2023-05-07T23:30:08.794Z,98.85
2023-05-07T23:32:25.788Z,99.88
2023-05-07T23:34:43.093Z,99.46
2023-05-07T23:37:00.843Z,99.49
2023-05-07T23:39:18.190Z,99.59
2023-05-07T23:41:35.888Z,100.00
2023-05-07T23:43:53.133Z,100.00
2023-05-07T23:46:10.033Z,100.00
2023-05-07T23:48:27.370Z,99.99
2023-05-07T23:50:45.439Z,99.38
2023-05-07T23:53:02.644Z,99.20
2023-05-07T23:55:19.650Z,99.38
2023-05-07T23:57:38.406Z,100.00
2023-05-07T23:59:55.744Z,99.95
